Time;durP1;ratioP1;P1;durP2;ratioP2;P2;SDS_P1;SDS_P2;PMS_P1;PMS_P2;Temp;Humidity;BMP_temperature;BMP_pressure;BME280_temperature;BME280_humidity;BME280_pressure;Samples;Min_cycle;Max_cycle;Signal;HPM_P1;HPM_P2
2021/09/17 00:00:18;;;;;;;20.67;15.20;;;13.70;99.90;;;;;;5041071;28;20186;-85
2021/09/17 00:02:44;;;;;;;21.70;14.77;;;13.70;99.90;;;;;;5040513;28;20181;-85
2021/09/17 00:05:10;;;;;;;24.37;15.10;;;13.70;99.90;;;;;;5042005;28;20186;-85
2021/09/17 00:07:35;;;;;;;21.57;13.90;;;13.70;99.90;;;;;;5041612;28;20178;-85
2021/09/17 00:10:01;;;;;;;19.70;14.90;;;13.70;99.90;;;;;;5041365;28;20269;-85
2021/09/17 00:12:27;;;;;;;18.37;14.20;;;13.60;99.90;;;;;;5042372;28;20196;-85
2021/09/17 00:14:53;;;;;;;20.97;15.63;;;13.60;99.90;;;;;;5040430;28;20182;-86
2021/09/17 00:17:19;;;;;;;26.43;16.70;;;13.60;99.90;;;;;;5042738;28;20199;-85
2021/09/17 00:19:45;;;;;;;25.00;16.63;;;13.70;99.90;;;;;;5041170;28;20206;-86
2021/09/17 00:22:10;;;;;;;24.97;18.23;;;13.60;99.90;;;;;;5042762;28;20193;-85
2021/09/17 00:24:36;;;;;;;22.83;16.70;;;13.60;99.90;;;;;;5042831;28;20178;-85
2021/09/17 00:27:02;;;;;;;22.70;16.27;;;13.60;99.90;;;;;;5054219;28;20218;-84
2021/09/17 00:29:27;;;;;;;20.73;16.03;;;13.60;99.90;;;;;;5055789;28;20269;-85
2021/09/17 00:31:53;;;;;;;18.20;13.23;;;13.60;99.90;;;;;;5044011;28;20182;-85
2021/09/17 00:34:19;;;;;;;15.67;12.30;;;13.50;99.90;;;;;;5040519;28;20216;-85
2021/09/17 00:36:44;;;;;;;15.13;11.57;;;13.40;99.90;;;;;;5041964;28;20197;-85
2021/09/17 00:39:13;;;;;;;19.43;12.30;;;13.40;99.90;;;;;;5040168;28;20194;-85
2021/09/17 00:41:40;;;;;;;15.47;11.77;;;13.40;99.90;;;;;;5038017;28;20198;-85
2021/09/17 00:44:06;;;;;;;17.07;11.67;;;13.30;99.90;;;;;;5037576;28;20330;-84
2021/09/17 00:46:32;;;;;;;16.10;11.57;;;13.30;99.90;;;;;;5038228;28;20201;-85
2021/09/17 00:48:58;;;;;;;15.73;10.80;;;13.30;99.90;;;;;;5036364;28;20182;-84
2021/09/17 00:51:23;;;;;;;14.93;10.37;;;13.20;99.90;;;;;;5038001;28;20517;-84
2021/09/17 00:53:49;;;;;;;13.07;10.50;;;;;;;;;;5036281;28;20200;-84
2021/09/17 00:56:16;;;;;;;15.93;10.33;;;13.10;99.90;;;;;;5037998;28;20197;-84
2021/09/17 00:58:42;;;;;;;14.53;10.13;;;13.10;99.90;;;;;;5040834;28;20210;-85
2021/09/17 01:01:08;;;;;;;15.30;10.90;;;;;;;;;;5039190;28;20213;-85
2021/09/17 01:03:34;;;;;;;15.87;10.40;;;13.00;99.90;;;;;;5039661;28;20175;-85
2021/09/17 01:06:02;;;;;;;13.53;10.23;;;13.00;99.90;;;;;;5038835;28;20198;-85
2021/09/17 01:08:30;;;;;;;17.17;10.10;;;13.00;99.90;;;;;;5039207;28;20178;-85
2021/09/17 01:10:57;;;;;;;15.00;10.90;;;13.00;99.90;;;;;;5040060;28;20661;-85
2021/09/17 01:13:23;;;;;;;16.27;10.53;;;13.00;99.90;;;;;;5039883;28;20273;-85
2021/09/17 01:15:49;;;;;;;13.90;10.23;;;13.00;99.90;;;;;;5039051;28;20673;-85
2021/09/17 01:18:15;;;;;;;15.20;10.93;;;13.00;99.90;;;;;;5041326;28;20202;-85
2021/09/17 01:20:41;;;;;;;13.33;10.53;;;;;;;;;;5040285;28;20181;-85
2021/09/17 01:23:07;;;;;;;18.50;11.13;;;13.00;99.90;;;;;;5041593;28;20631;-85
2021/09/17 01:25:33;;;;;;;18.93;10.80;;;12.90;99.90;;;;;;5041067;28;20198;-85
2021/09/17 01:27:59;;;;;;;12.87;10.63;;;12.90;99.90;;;;;;5039805;28;20316;-85
2021/09/17 01:30:25;;;;;;;16.60;10.93;;;;;;;;;;5039890;28;20201;-85
2021/09/17 01:32:51;;;;;;;16.80;10.90;;;12.90;99.90;;;;;;5040939;28;20188;-85
2021/09/17 01:35:19;;;;;;;17.47;11.30;;;12.80;99.90;;;;;;5039357;28;20177;-85
2021/09/17 01:37:45;;;;;;;14.90;11.10;;;12.80;99.90;;;;;;5039556;28;20264;-85
2021/09/17 01:40:13;;;;;;;13.57;10.60;;;12.80;99.90;;;;;;5041149;28;20206;-85
2021/09/17 01:42:40;;;;;;;15.40;11.00;;;12.80;99.90;;;;;;5040410;28;20205;-85
2021/09/17 01:45:08;;;;;;;17.60;10.90;;;12.80;99.90;;;;;;5040904;28;20215;-85
2021/09/17 01:47:33;;;;;;;17.37;11.00;;;12.70;99.90;;;;;;5041215;28;20259;-85
2021/09/17 01:49:59;;;;;;;15.53;10.17;;;;;;;;;;5040391;28;20215;-85
2021/09/17 01:52:25;;;;;;;13.20;9.43;;;12.70;99.90;;;;;;5039904;28;20182;-85
2021/09/17 01:54:51;;;;;;;13.57;9.83;;;;;;;;;;5040480;28;20196;-85
2021/09/17 01:57:17;;;;;;;15.30;10.33;;;12.70;99.90;;;;;;5046461;28;20186;-84
2021/09/17 01:59:42;;;;;;;15.10;10.00;;;12.70;99.90;;;;;;5059035;28;20230;-84
2021/09/17 02:02:08;;;;;;;14.00;10.03;;;12.60;99.90;;;;;;5059099;28;20186;-85
2021/09/17 02:04:34;;;;;;;14.60;9.83;;;;;;;;;;5044966;28;20191;-85
2021/09/17 02:07:00;;;;;;;13.53;9.40;;;12.60;99.90;;;;;;5044282;28;20272;-85
2021/09/17 02:09:25;;;;;;;13.30;10.17;;;12.60;99.90;;;;;;5044988;28;20231;-85
2021/09/17 02:11:51;;;;;;;17.33;9.17;;;;;;;;;;5044975;28;20705;-85
2021/09/17 02:14:17;;;;;;;12.97;8.40;;;12.60;99.90;;;;;;5043000;28;20528;-85
2021/09/17 02:16:43;;;;;;;11.73;8.40;;;12.60;99.90;;;;;;5045086;28;20201;-85
2021/09/17 02:19:08;;;;;;;11.53;8.67;;;12.60;99.90;;;;;;5042591;28;20209;-85
2021/09/17 02:21:34;;;;;;;13.43;9.17;;;;;;;;;;5043396;28;20504;-85
2021/09/17 02:24:00;;;;;;;12.93;8.60;;;12.60;99.90;;;;;;5041814;28;20180;-85
2021/09/17 02:26:26;;;;;;;11.30;8.20;;;12.60;99.90;;;;;;5042902;28;20201;-85
2021/09/17 02:28:52;;;;;;;11.53;8.67;;;12.60;99.90;;;;;;5041710;28;20182;-85
2021/09/17 02:31:18;;;;;;;10.07;8.27;;;;;;;;;;5043862;28;20185;-85
2021/09/17 02:33:43;;;;;;;11.90;8.03;;;12.60;99.90;;;;;;5041884;28;20630;-85
2021/09/17 02:36:09;;;;;;;12.03;8.03;;;12.50;99.90;;;;;;5043026;28;20293;-85
2021/09/17 02:38:35;;;;;;;11.00;8.00;;;;;;;;;;5042986;28;20212;-85
2021/09/17 02:41:01;;;;;;;10.60;7.87;;;12.50;99.90;;;;;;5044090;28;20260;-85
2021/09/17 02:43:27;;;;;;;12.23;7.83;;;12.40;99.90;;;;;;5043456;28;20173;-85
2021/09/17 02:45:53;;;;;;;13.63;8.00;;;12.50;99.90;;;;;;5042474;28;20581;-85
2021/09/17 02:48:18;;;;;;;10.73;7.60;;;12.50;99.90;;;;;;5045018;28;20215;-85
2021/09/17 02:50:44;;;;;;;12.90;8.60;;;;;;;;;;5045982;28;20627;-85
2021/09/17 02:53:10;;;;;;;10.30;7.90;;;12.50;99.90;;;;;;5045297;28;20562;-85
2021/09/17 02:55:36;;;;;;;12.00;7.77;;;;;;;;;;5042706;28;20209;-85
2021/09/17 02:58:05;;;;;;;12.37;7.40;;;12.40;99.90;;;;;;5041094;28;20181;-85
2021/09/17 03:00:31;;;;;;;9.57;6.77;;;12.30;99.90;;;;;;5041521;28;20178;-85
2021/09/17 03:02:58;;;;;;;8.37;6.97;;;12.30;99.90;;;;;;5041341;28;20183;-85
2021/09/17 03:05:23;;;;;;;8.43;6.60;;;12.30;99.90;;;;;;5042593;28;20670;-85
2021/09/17 03:07:49;;;;;;;9.50;7.80;;;;;;;;;;5042251;28;20173;-85
2021/09/17 03:10:15;;;;;;;12.33;8.10;;;12.30;99.90;;;;;;5040641;28;20217;-85
2021/09/17 03:12:41;;;;;;;8.37;6.93;;;12.20;99.90;;;;;;5041568;28;20185;-84
2021/09/17 03:15:07;;;;;;;8.57;6.97;;;12.20;99.90;;;;;;5039414;28;20205;-84
2021/09/17 03:17:33;;;;;;;9.40;6.50;;;12.20;99.90;;;;;;5037341;28;20201;-84
2021/09/17 03:19:59;;;;;;;9.53;6.77;;;12.10;99.90;;;;;;5036744;28;20206;-84
2021/09/17 03:22:25;;;;;;;9.63;7.33;;;;;;;;;;5036133;28;20183;-84
2021/09/17 03:24:51;;;;;;;8.33;6.63;;;;;;;;;;5036146;28;20184;-84
2021/09/17 03:27:17;;;;;;;8.60;6.67;;;12.10;99.90;;;;;;5037264;28;20557;-84
2021/09/17 03:29:43;;;;;;;8.60;6.13;;;12.10;99.90;;;;;;5037496;28;20235;-84
2021/09/17 03:32:08;;;;;;;8.50;7.10;;;12.10;99.90;;;;;;5036380;28;20182;-84
2021/09/17 03:34:35;;;;;;;9.67;7.30;;;;;;;;;;5040886;28;20184;-85
2021/09/17 03:37:01;;;;;;;11.07;6.83;;;12.20;99.90;;;;;;5040109;28;20252;-85
2021/09/17 03:39:27;;;;;;;10.43;8.27;;;12.10;99.90;;;;;;5042226;28;20604;-85
2021/09/17 03:41:52;;;;;;;11.90;7.53;;;12.10;99.90;;;;;;5042152;28;20174;-84
2021/09/17 03:44:18;;;;;;;9.17;7.07;;;12.20;99.90;;;;;;5043224;28;20184;-84
2021/09/17 03:46:44;;;;;;;11.13;7.70;;;12.20;99.90;;;;;;5042682;28;20209;-85
2021/09/17 03:49:10;;;;;;;8.13;7.07;;;12.10;99.90;;;;;;5040646;28;20235;-84
2021/09/17 03:51:35;;;;;;;10.73;7.20;;;12.10;99.90;;;;;;5039697;28;20209;-86
2021/09/17 03:54:01;;;;;;;10.33;7.23;;;;;;;;;;5039893;28;20204;-85
2021/09/17 03:56:27;;;;;;;8.23;7.13;;;12.20;99.90;;;;;;5040912;28;20212;-86
2021/09/17 03:58:53;;;;;;;10.13;7.67;;;12.20;99.90;;;;;;5042072;28;20206;-85
2021/09/17 04:01:18;;;;;;;11.33;7.97;;;12.20;99.90;;;;;;5040895;28;20176;-86
2021/09/17 04:03:46;;;;;;;10.23;6.90;;;12.20;99.90;;;;;;5040059;28;20197;-86
2021/09/17 04:06:12;;;;;;;10.13;7.23;;;12.30;99.90;;;;;;5038420;28;20202;-85
2021/09/17 04:08:38;;;;;;;9.60;7.83;;;12.20;99.90;;;;;;5040040;28;20178;-86
2021/09/17 04:11:03;;;;;;;10.57;7.70;;;12.30;99.90;;;;;;5039365;28;20186;-85
2021/09/17 04:13:29;;;;;;;11.27;8.13;;;12.20;99.90;;;;;;5039636;28;20182;-84
2021/09/17 04:15:54;;;;;;;11.43;7.43;;;12.30;99.90;;;;;;5040584;28;20208;-86
2021/09/17 04:18:20;;;;;;;10.30;8.20;;;12.20;99.90;;;;;;5040960;28;20296;-86
2021/09/17 04:20:46;;;;;;;10.10;7.27;;;12.30;99.90;;;;;;5040156;28;20196;-84
2021/09/17 04:23:12;;;;;;;11.83;8.73;;;;;;;;;;5039380;28;20175;-85
2021/09/17 04:25:37;;;;;;;13.17;8.00;;;12.30;99.90;;;;;;5039034;28;20283;-85
2021/09/17 04:28:03;;;;;;;12.47;7.73;;;12.30;99.90;;;;;;5041305;28;20194;-86
2021/09/17 04:30:29;;;;;;;10.90;7.67;;;12.30;99.90;;;;;;5043707;28;20194;-86
2021/09/17 04:32:55;;;;;;;10.50;8.03;;;12.30;99.90;;;;;;5042212;28;20542;-86
2021/09/17 04:35:20;;;;;;;11.43;8.67;;;12.20;99.90;;;;;;5042074;28;20242;-85
2021/09/17 04:37:53;;;;;;;15.77;8.50;;;12.30;99.90;;;;;;5040431;28;20549;-85
2021/09/17 04:40:18;;;;;;;10.80;7.43;;;12.20;99.90;;;;;;5038217;28;20692;-85
2021/09/17 04:42:44;;;;;;;9.93;7.77;;;12.20;99.90;;;;;;5040201;28;20174;-85
2021/09/17 04:45:10;;;;;;;12.10;8.70;;;;;;;;;;5038813;28;20182;-85
2021/09/17 04:47:37;;;;;;;10.60;8.57;;;12.30;99.90;;;;;;5039843;28;20681;-85
2021/09/17 04:50:04;;;;;;;12.00;8.47;;;12.20;99.90;;;;;;5041246;28;20236;-85
2021/09/17 04:52:29;;;;;;;13.63;9.97;;;12.30;99.90;;;;;;5042611;28;20231;-85
2021/09/17 04:54:59;;;;;;;11.47;8.70;;;12.30;99.90;;;;;;5044886;28;20269;-85
2021/09/17 04:57:27;;;;;;;12.67;8.63;;;12.20;99.90;;;;;;5038524;28;20587;-85
2021/09/17 04:59:54;;;;;;;13.27;9.07;;;12.30;99.90;;;;;;5039821;28;20197;-85
2021/09/17 05:02:19;;;;;;;11.30;8.53;;;12.30;99.90;;;;;;5038958;28;20227;-85
2021/09/17 05:04:45;;;;;;;12.40;8.70;;;;;;;;;;5040283;28;20593;-86
2021/09/17 05:07:11;;;;;;;12.40;8.80;;;12.30;99.90;;;;;;5038806;28;20198;-85
2021/09/17 05:09:38;;;;;;;11.37;8.37;;;12.30;99.90;;;;;;5038914;28;20749;-85
2021/09/17 05:12:04;;;;;;;12.67;7.87;;;12.30;99.90;;;;;;5039538;28;20211;-86
2021/09/17 05:14:30;;;;;;;11.83;8.73;;;12.30;99.90;;;;;;5039687;28;20647;-85
2021/09/17 05:16:56;;;;;;;16.63;8.60;;;12.30;99.90;;;;;;5041394;28;20248;-85
2021/09/17 05:19:23;;;;;;;14.20;9.13;;;12.30;99.90;;;;;;5043368;28;20655;-85
2021/09/17 05:21:54;;;;;;;14.03;8.20;;;12.30;99.90;;;;;;5041757;28;20218;-85
2021/09/17 05:24:20;;;;;;;12.80;8.83;;;12.20;99.90;;;;;;5040121;28;20196;-84
2021/09/17 05:26:46;;;;;;;13.57;8.53;;;12.30;99.90;;;;;;5035987;28;20570;-87
2021/09/17 05:29:11;;;;;;;11.47;8.53;;;12.30;99.90;;;;;;5039584;28;20158;-84
2021/09/17 05:31:41;;;;;;;11.43;7.97;;;12.30;99.90;;;;;;5042767;28;20181;-84
2021/09/17 05:34:08;;;;;;;11.93;8.67;;;12.40;99.90;;;;;;5041951;28;20184;-84
2021/09/17 05:36:34;;;;;;;12.97;8.80;;;12.30;99.90;;;;;;5039382;28;20198;-84
2021/09/17 05:39:00;;;;;;;13.90;8.60;;;12.40;99.90;;;;;;5041081;28;20211;-84
2021/09/17 05:41:26;;;;;;;11.20;8.67;;;12.40;99.90;;;;;;5044347;28;20180;-84
2021/09/17 05:43:52;;;;;;;11.33;8.23;;;12.40;99.90;;;;;;5048739;28;20184;-84
2021/09/17 05:46:18;;;;;;;12.60;8.53;;;12.40;99.90;;;;;;5044676;28;20239;-84
2021/09/17 05:48:43;;;;;;;9.17;7.40;;;12.40;99.90;;;;;;5045243;28;20178;-84
2021/09/17 05:51:09;;;;;;;11.53;8.30;;;12.40;99.90;;;;;;5043132;28;20193;-85
2021/09/17 05:53:35;;;;;;;11.97;7.13;;;12.40;99.90;;;;;;5040860;28;20727;-85
2021/09/17 05:56:01;;;;;;;11.03;8.77;;;12.40;99.90;;;;;;5039389;28;20235;-85
2021/09/17 05:58:30;;;;;;;10.67;8.40;;;12.50;99.90;;;;;;5041937;28;20212;-85
2021/09/17 06:00:56;;;;;;;10.47;8.17;;;12.50;99.90;;;;;;5041215;28;20545;-85
2021/09/17 06:03:21;;;;;;;10.27;7.50;;;12.60;99.90;;;;;;5037036;28;20189;-84
2021/09/17 06:05:47;;;;;;;9.40;7.37;;;12.70;99.90;;;;;;5038153;28;20202;-84
2021/09/17 06:08:13;;;;;;;8.50;7.10;;;12.70;99.90;;;;;;5036601;28;20257;-84
2021/09/17 06:10:38;;;;;;;9.37;7.07;;;12.70;99.90;;;;;;5040900;28;20208;-85
2021/09/17 06:13:04;;;;;;;11.27;8.03;;;12.80;99.90;;;;;;5043954;28;20249;-85
2021/09/17 06:15:30;;;;;;;8.93;7.37;;;12.80;99.90;;;;;;5042889;28;20270;-85
2021/09/17 06:17:55;;;;;;;7.47;6.30;;;12.80;99.90;;;;;;5043509;28;20257;-84
2021/09/17 06:20:21;;;;;;;9.20;6.97;;;12.90;99.90;;;;;;5043042;28;20335;-85
2021/09/17 06:22:47;;;;;;;6.97;5.80;;;12.90;99.90;;;;;;5044288;28;20665;-84
2021/09/17 06:25:15;;;;;;;8.53;6.17;;;12.90;99.90;;;;;;5042614;28;20255;-85
2021/09/17 06:27:43;;;;;;;10.37;7.00;;;12.90;99.90;;;;;;5042449;28;20200;-85
2021/09/17 06:30:09;;;;;;;14.80;7.30;;;12.90;99.90;;;;;;5042755;28;20193;-84
2021/09/17 06:32:35;;;;;;;12.20;7.73;;;12.90;99.90;;;;;;5047195;28;20178;-84
2021/09/17 06:35:00;;;;;;;13.47;7.80;;;13.00;99.90;;;;;;5043348;28;20232;-84
2021/09/17 06:37:26;;;;;;;15.93;8.70;;;13.00;99.90;;;;;;5041842;28;20200;-85
2021/09/17 06:39:52;;;;;;;14.63;8.80;;;13.00;99.90;;;;;;5042405;28;20296;-85
2021/09/17 06:42:17;;;;;;;9.50;7.80;;;13.10;99.90;;;;;;5041930;28;20271;-85
2021/09/17 06:44:43;;;;;;;10.27;7.13;;;13.20;99.90;;;;;;5044901;28;20615;-86
2021/09/17 06:47:09;;;;;;;8.63;7.07;;;13.20;99.90;;;;;;5041710;28;20201;-86
2021/09/17 06:49:34;;;;;;;12.37;7.70;;;13.20;99.90;;;;;;5043275;28;20272;-86
2021/09/17 06:52:00;;;;;;;11.30;7.90;;;;;;;;;;5046723;28;20171;-86
2021/09/17 06:54:26;;;;;;;9.73;8.07;;;13.10;99.90;;;;;;5040670;28;20177;-85
2021/09/17 06:56:51;;;;;;;9.50;7.90;;;13.20;99.90;;;;;;5042342;28;20194;-85
2021/09/17 06:59:17;;;;;;;9.87;8.07;;;13.20;99.90;;;;;;5042262;28;20200;-86
2021/09/17 07:01:43;;;;;;;11.07;8.03;;;13.30;99.90;;;;;;5041062;28;20671;-85
2021/09/17 07:04:08;;;;;;;9.33;8.10;;;13.20;99.90;;;;;;5041192;28;20175;-86
2021/09/17 07:06:36;;;;;;;10.30;7.53;;;13.40;99.90;;;;;;5042209;28;20194;-86
2021/09/17 07:09:03;;;;;;;8.87;6.97;;;13.40;99.90;;;;;;5041927;28;20219;-85
2021/09/17 07:11:28;;;;;;;9.10;7.47;;;13.50;99.90;;;;;;5042990;28;20678;-85
2021/09/17 07:13:54;;;;;;;12.60;8.73;;;13.50;99.90;;;;;;5042336;28;20182;-85
2021/09/17 07:16:20;;;;;;;11.17;8.07;;;13.60;99.90;;;;;;5041692;28;20194;-86
2021/09/17 07:18:46;;;;;;;13.40;8.90;;;13.70;99.90;;;;;;5042525;28;20205;-86
2021/09/17 07:21:11;;;;;;;9.63;7.30;;;13.80;99.90;;;;;;5044280;28;20173;-86
2021/09/17 07:23:37;;;;;;;10.63;7.93;;;13.80;99.90;;;;;;5043611;28;20177;-85
2021/09/17 07:26:03;;;;;;;9.73;7.23;;;14.00;99.90;;;;;;5046866;28;20198;-85
2021/09/17 07:28:32;;;;;;;12.60;7.90;;;14.10;99.90;;;;;;5040903;28;20602;-86
2021/09/17 07:30:58;;;;;;;10.90;7.83;;;14.20;99.90;;;;;;5040679;28;20518;-85
2021/09/17 07:33:24;;;;;;;10.73;7.30;;;14.30;99.90;;;;;;5040245;28;20185;-86
2021/09/17 07:35:49;;;;;;;9.97;7.60;;;14.30;99.90;;;;;;5040013;28;20198;-85
2021/09/17 07:38:15;;;;;;;8.70;6.87;;;;;;;;;;5042066;28;20174;-86
2021/09/17 07:40:41;;;;;;;8.53;7.10;;;14.50;99.90;;;;;;5041301;28;20174;-85
2021/09/17 07:43:07;;;;;;;8.87;6.63;;;14.50;99.90;;;;;;5040949;28;20185;-85
2021/09/17 07:45:32;;;;;;;6.73;6.03;;;14.50;99.90;;;;;;5039758;28;20260;-85
2021/09/17 07:48:00;;;;;;;9.87;6.67;;;14.60;99.90;;;;;;5040281;28;20186;-85
2021/09/17 07:50:27;;;;;;;7.60;5.67;;;14.70;99.90;;;;;;5041211;28;20178;-85
2021/09/17 07:52:53;;;;;;;7.03;4.87;;;14.70;99.90;;;;;;5041142;28;20174;-85
2021/09/17 07:55:18;;;;;;;4.40;3.43;;;14.80;99.90;;;;;;5040058;28;20273;-85
2021/09/17 07:57:45;;;;;;;6.93;3.67;;;14.70;99.90;;;;;;5040672;28;20187;-85
2021/09/17 08:00:12;;;;;;;7.23;3.93;;;14.70;99.90;;;;;;5040857;28;20233;-85
2021/09/17 08:02:39;;;;;;;5.80;3.90;;;14.60;99.90;;;;;;5039963;28;20193;-86
2021/09/17 08:05:06;;;;;;;4.60;4.10;;;14.80;99.90;;;;;;5042588;28;20266;-85
2021/09/17 08:07:31;;;;;;;5.33;4.10;;;14.90;99.90;;;;;;5040115;28;20197;-86
2021/09/17 08:09:57;;;;;;;7.73;4.63;;;14.90;99.90;;;;;;5039567;28;20178;-85
2021/09/17 08:12:23;;;;;;;7.20;4.50;;;15.00;99.90;;;;;;5035797;28;20249;-85
2021/09/17 08:14:48;;;;;;;6.30;4.70;;;15.00;99.90;;;;;;5038352;28;20186;-85
2021/09/17 08:17:14;;;;;;;11.27;5.00;;;14.90;99.90;;;;;;5041070;28;20202;-86
2021/09/17 08:19:40;;;;;;;5.07;4.00;;;15.00;99.90;;;;;;5038244;28;20210;-86
2021/09/17 08:22:05;;;;;;;7.13;4.77;;;15.10;99.90;;;;;;5038655;28;20181;-86
2021/09/17 08:24:31;;;;;;;5.07;3.83;;;15.20;99.90;;;;;;5038464;28;20174;-84
2021/09/17 08:26:58;;;;;;;4.40;3.70;;;15.40;99.90;;;;;;5040179;28;20210;-86
2021/09/17 08:29:24;;;;;;;5.47;3.47;;;15.40;99.90;;;;;;5038655;28;20185;-86
2021/09/17 08:31:49;;;;;;;4.33;3.23;;;15.30;99.90;;;;;;5038508;28;20178;-86
2021/09/17 08:34:15;;;;;;;3.93;3.30;;;15.40;99.90;;;;;;5036648;28;20189;-86
2021/09/17 08:36:41;;;;;;;5.20;3.50;;;15.40;99.90;;;;;;5037509;28;20255;-86
2021/09/17 08:39:08;;;;;;;6.57;3.80;;;15.50;99.90;;;;;;5035755;28;20204;-84
2021/09/17 08:41:34;;;;;;;6.80;3.90;;;15.60;99.90;;;;;;5038013;28;20179;-83
2021/09/17 08:44:00;;;;;;;4.90;3.50;;;15.60;99.90;;;;;;5038049;28;20194;-82
2021/09/17 08:46:26;;;;;;;3.90;3.43;;;15.70;99.90;;;;;;5036755;28;20193;-83
2021/09/17 08:48:52;;;;;;;4.43;3.40;;;15.70;99.90;;;;;;5044614;28;20177;-84
2021/09/17 08:51:21;;;;;;;3.97;3.43;;;15.80;99.90;;;;;;5045368;28;20185;-84
2021/09/17 08:53:47;;;;;;;6.60;4.10;;;16.00;99.90;;;;;;5042577;28;20519;-83
2021/09/17 08:56:17;;;;;;;4.97;3.33;;;16.10;99.90;;;;;;5039852;28;20209;-83
2021/09/17 08:58:47;;;;;;;4.40;3.60;;;16.20;99.90;;;;;;5038933;28;20206;-86
2021/09/17 09:01:48;;;;;;;5.23;3.90;;;16.30;99.90;;;;;;5040026;28;20185;-86
2021/09/17 09:04:14;;;;;;;5.00;3.80;;;16.40;99.90;;;;;;5002739;28;20691;-86
2021/09/17 09:06:46;;;;;;;5.03;4.17;;;16.50;99.90;;;;;;5032700;28;20209;-84
2021/09/17 09:09:17;;;;;;;5.93;3.33;;;16.50;99.90;;;;;;5042775;28;20223;-84
2021/09/17 09:11:46;;;;;;;3.87;3.50;;;16.40;99.90;;;;;;5042122;28;20178;-84
2021/09/17 09:14:13;;;;;;;5.70;3.53;;;16.40;99.90;;;;;;5038212;28;20170;-84
2021/09/17 09:16:41;;;;;;;6.50;3.30;;;16.50;99.90;;;;;;5037869;28;20269;-83
2021/09/17 09:19:29;;;;;;;3.77;3.47;;;16.50;99.90;;;;;;5039716;28;20233;-84
2021/09/17 09:22:06;;;;;;;4.33;3.67;;;16.70;99.90;;;;;;5039169;28;20162;-83
2021/09/17 09:24:39;;;;;;;6.57;3.80;;;16.90;99.90;;;;;;5038073;28;20541;-85
2021/09/17 09:27:14;;;;;;;5.63;3.80;;;17.10;99.90;;;;;;5037821;28;20270;-84
2021/09/17 09:29:43;;;;;;;3.87;3.17;;;17.20;99.90;;;;;;5040159;28;20496;-84
2021/09/17 09:32:27;;;;;;;5.40;3.80;;;17.10;99.90;;;;;;5038842;28;20251;-83
2021/09/17 09:34:58;;;;;;;3.77;3.37;;;17.20;99.90;;;;;;5038837;28;20174;-83
2021/09/17 09:37:27;;;;;;;5.63;3.50;;;17.20;99.90;;;;;;5038256;28;20198;-84
2021/09/17 09:40:00;;;;;;;4.93;3.50;;;17.10;99.90;;;;;;5039094;28;20718;-86
2021/09/17 09:42:34;;;;;;;5.90;3.83;;;17.00;99.90;;;;;;5039111;28;20172;-86
2021/09/17 09:45:16;;;;;;;3.87;3.37;;;17.10;99.90;;;;;;5036130;28;20225;-86
2021/09/17 09:47:48;;;;;;;6.23;3.07;;;17.10;99.90;;;;;;5037922;28;20179;-84
2021/09/17 09:50:16;;;;;;;5.00;3.07;;;17.20;99.90;;;;;;5039492;28;20165;-83
2021/09/17 09:52:42;;;;;;;5.10;4.07;;;17.30;99.90;;;;;;5037761;28;20563;-84
2021/09/17 09:55:09;;;;;;;5.27;3.70;;;17.20;99.90;;;;;;5037034;28;20187;-84
2021/09/17 09:57:35;;;;;;;5.13;3.57;;;17.40;99.90;;;;;;5038923;28;20199;-84
2021/09/17 10:00:06;;;;;;;6.30;3.37;;;17.40;99.90;;;;;;5037987;28;20566;-84
2021/09/17 10:02:33;;;;;;;3.93;3.40;;;17.40;99.90;;;;;;5038157;28;20171;-84
2021/09/17 10:04:59;;;;;;;5.50;3.70;;;17.20;99.90;;;;;;5039367;28;20180;-84
2021/09/17 10:07:29;;;;;;;4.10;3.10;;;17.10;99.90;;;;;;5042280;28;20217;-84
2021/09/17 10:09:57;;;;;;;3.10;2.87;;;16.90;99.90;;;;;;5042780;28;20241;-84
2021/09/17 10:12:24;;;;;;;3.47;3.07;;;16.70;99.90;;;;;;5039382;28;20179;-84
2021/09/17 10:14:51;;;;;;;3.80;3.30;;;16.60;99.90;;;;;;5039971;28;20248;-84
2021/09/17 10:17:20;;;;;;;3.60;3.17;;;16.60;99.90;;;;;;5043203;28;20245;-84
2021/09/17 10:19:47;;;;;;;5.13;3.60;;;16.50;99.90;;;;;;5043017;28;20217;-84
2021/09/17 10:22:31;;;;;;;5.47;3.57;;;16.50;99.90;;;;;;5044496;28;20171;-84
2021/09/17 10:25:04;;;;;;;3.53;3.23;;;16.60;99.90;;;;;;5042491;28;20181;-84
2021/09/17 10:27:30;;;;;;;3.73;3.43;;;16.90;99.90;;;;;;5044669;28;20286;-84
2021/09/17 10:30:02;;;;;;;4.60;3.47;;;17.20;99.90;;;;;;5044071;28;20692;-84
2021/09/17 10:32:35;;;;;;;6.30;3.60;;;17.60;99.90;;;;;;5042087;28;20182;-84
2021/09/17 10:35:16;;;;;;;3.87;3.47;;;18.10;99.90;;;;;;5043167;28;20173;-84
2021/09/17 10:37:56;;;;;;;4.00;3.43;;;18.50;99.90;;;;;;5043228;28;20180;-84
2021/09/17 10:40:42;;;;;;;4.97;3.63;;;18.80;99.90;;;;;;5042345;28;20194;-84
2021/09/17 10:43:11;;;;;;;4.23;3.73;;;19.10;99.90;;;;;;5043047;28;20166;-84
2021/09/17 10:45:45;;;;;;;4.93;3.63;;;19.50;99.90;;;;;;5046759;28;20212;-84
2021/09/17 10:48:22;;;;;;;4.93;3.53;;;19.60;99.90;;;;;;5046657;28;20177;-84
2021/09/17 10:50:54;;;;;;;6.53;3.40;;;19.60;99.90;;;;;;5045556;28;20181;-82
2021/09/17 10:53:59;;;;;;;3.90;3.27;;;19.20;99.90;;;;;;5040249;28;20154;-83
2021/09/17 10:56:26;;;;;;;5.57;3.70;;;18.70;99.90;;;;;;5019555;28;20202;-83
2021/09/17 10:59:16;;;;;;;3.40;3.10;;;18.30;99.90;;;;;;5033016;28;20229;-83
2021/09/17 11:02:03;;;;;;;24.93;4.30;;;18.00;99.90;;;;;;5041052;28;20158;-84
2021/09/17 11:04:31;;;;;;;4.17;3.33;;;17.80;99.90;;;;;;5040003;28;20534;-83
2021/09/17 11:07:22;;;;;;;4.67;3.30;;;17.80;99.90;;;;;;5038832;28;20197;-83
2021/09/17 11:09:53;;;;;;;3.60;3.30;;;17.80;99.90;;;;;;5042015;28;20190;-83
2021/09/17 11:12:20;;;;;;;3.47;3.17;;;18.00;99.90;;;;;;5051059;28;20344;-83
2021/09/17 11:15:10;;;;;;;4.43;3.00;;;18.70;99.90;;;;;;5041854;28;20276;-83
2021/09/17 11:17:37;;;;;;;5.10;3.03;;;20.50;99.90;;;;;;5047852;28;20532;-84
2021/09/17 11:20:04;;;;;;;3.63;3.33;;;21.30;99.90;;;;;;5043947;28;20201;-85
2021/09/17 11:22:30;;;;;;;3.63;3.30;;;21.30;99.90;;;;;;5042929;28;20213;-84
2021/09/17 11:25:07;;;;;;;4.03;3.23;;;21.50;99.90;;;;;;5042419;28;20178;-85
2021/09/17 11:27:39;;;;;;;3.63;3.33;;;22.00;99.90;;;;;;5043417;28;20267;-85
2021/09/17 11:30:06;;;;;;;3.20;2.90;;;21.80;99.90;;;;;;5044325;28;20182;-85
2021/09/17 11:32:32;;;;;;;2.83;2.60;;;20.80;99.90;;;;;;5047292;28;20213;-85
2021/09/17 11:35:06;;;;;;;3.43;3.13;;;20.10;99.90;;;;;;5044205;28;20182;-84
2021/09/17 11:37:31;;;;;;;3.80;3.50;;;19.40;99.90;;;;;;5042293;28;20206;-82
2021/09/17 11:40:06;;;;;;;3.80;3.00;;;18.70;99.90;;;;;;5042092;28;20215;-84
2021/09/17 11:42:33;;;;;;;3.53;3.23;;;18.60;99.90;;;;;;5041403;28;20239;-84
2021/09/17 11:44:58;;;;;;;4.90;3.17;;;18.50;99.90;;;;;;5042285;28;20185;-84
2021/09/17 11:47:31;;;;;;;5.67;3.17;;;18.30;99.90;;;;;;5041780;28;20202;-84
2021/09/17 11:50:00;;;;;;;3.77;2.90;;;18.10;99.90;;;;;;5028820;28;20193;-83
2021/09/17 11:52:26;;;;;;;2.90;2.60;;;18.20;99.90;;;;;;5021942;28;20193;-85
2021/09/17 11:55:02;;;;;;;3.73;2.97;;;18.20;99.90;;;;;;5042578;28;20213;-86
2021/09/17 11:57:33;;;;;;;3.70;3.30;;;18.50;99.90;;;;;;5043164;28;20677;-83
2021/09/17 11:59:59;;;;;;;5.97;3.47;;;;;;;;;;5024489;28;20226;-82
2021/09/17 12:02:26;;;;;;;5.53;3.87;;;18.90;99.90;;;;;;5021221;28;20210;-82
2021/09/17 12:05:01;;;;;;;5.90;3.93;;;18.90;99.90;;;;;;5023039;28;20179;-84
2021/09/17 12:07:29;;;;;;;6.47;4.00;;;18.90;99.90;;;;;;5034492;28;20715;-84
2021/09/17 12:09:55;;;;;;;8.07;3.83;;;18.80;99.90;;;;;;5041467;28;20188;-83
2021/09/17 12:12:35;;;;;;;4.73;3.90;;;18.90;99.90;;;;;;5041924;28;20184;-82
2021/09/17 12:15:01;;;;;;;4.13;3.73;;;18.90;99.90;;;;;;5042286;28;20236;-83
2021/09/17 12:17:27;;;;;;;6.20;4.63;;;18.90;99.90;;;;;;5044667;28;20198;-85
2021/09/17 12:20:09;;;;;;;4.93;3.80;;;18.90;99.90;;;;;;5043291;28;20256;-83
2021/09/17 12:22:44;;;;;;;5.37;4.10;;;19.10;99.90;;;;;;5045805;28;20184;-83
2021/09/17 12:25:11;;;;;;;4.47;4.07;;;;;;;;;;5042787;28;20173;-84
2021/09/17 12:27:40;;;;;;;4.93;4.07;;;20.20;99.90;;;;;;5043054;28;20260;-84
2021/09/17 12:30:20;;;;;;;4.83;4.30;;;20.20;99.90;;;;;;5041443;28;20186;-83
2021/09/17 12:33:11;;;;;;;5.67;4.13;;;20.00;99.90;;;;;;5043290;28;20184;-82
2021/09/17 12:35:42;;;;;;;6.40;4.60;;;20.00;99.90;;;;;;5042656;28;20541;-84
2021/09/17 12:38:10;;;;;;;4.70;4.17;;;20.00;99.90;;;;;;5040013;28;20209;-82
2021/09/17 12:40:39;;;;;;;4.37;3.97;;;20.00;99.90;;;;;;5040727;28;20209;-85
2021/09/17 12:43:11;;;;;;;5.07;4.20;;;20.00;99.90;;;;;;5041285;28;20185;-82
2021/09/17 12:45:41;;;;;;;5.80;4.13;;;19.60;99.90;;;;;;5041880;28;20198;-84
2021/09/17 12:48:08;;;;;;;5.97;4.50;;;19.60;99.90;;;;;;5042164;28;20170;-84
2021/09/17 12:50:38;;;;;;;5.23;4.10;;;19.30;99.90;;;;;;5042690;28;20542;-84